createdAt,value
2017-08-02T00:00:39.425Z,296
2017-08-02T00:01:46.913Z,280
2017-08-02T00:02:54.390Z,283
2017-08-02T00:04:01.988Z,288
2017-08-02T00:05:09.473Z,297
2017-08-02T00:06:16.618Z,287
2017-08-02T00:07:24.110Z,284
2017-08-02T00:08:30.937Z,279
2017-08-02T00:09:38.723Z,281
2017-08-02T00:10:46.208Z,265
2017-08-02T00:11:53.724Z,263
2017-08-02T00:13:01.212Z,265
2017-08-02T00:14:08.698Z,272
2017-08-02T00:15:30.779Z,269
2017-08-02T00:16:38.265Z,269
2017-08-02T00:17:45.744Z,268
2017-08-02T00:18:53.232Z,270
2017-08-02T00:20:00.714Z,271
2017-08-02T00:21:08.299Z,270
2017-08-02T00:22:15.784Z,271
2017-08-02T00:23:23.267Z,231
2017-08-02T00:24:30.742Z,234
2017-08-02T00:25:38.229Z,225
2017-08-02T00:26:45.963Z,225
2017-08-02T00:27:53.447Z,207
2017-08-02T00:29:00.929Z,210
2017-08-02T00:30:08.416Z,214
2017-08-02T00:31:15.898Z,217
2017-08-02T00:32:23.419Z,217
2017-08-02T00:33:30.902Z,230
2017-08-02T00:34:38.382Z,206
2017-08-02T00:35:45.869Z,202
2017-08-02T00:36:53.359Z,192
2017-08-02T00:38:01.195Z,194
2017-08-02T00:39:08.678Z,195
2017-08-02T00:40:16.166Z,198
2017-08-02T00:41:23.645Z,183
2017-08-02T00:42:31.128Z,187
2017-08-02T00:43:38.918Z,189
2017-08-02T00:44:46.411Z,190
2017-08-02T00:45:53.895Z,190
2017-08-02T00:47:01.379Z,192
2017-08-02T00:48:08.537Z,196
2017-08-02T00:49:16.923Z,194
2017-08-02T00:50:24.411Z,178
2017-08-02T00:51:31.913Z,161
2017-08-02T00:52:39.395Z,149
2017-08-02T00:53:46.873Z,147
2017-08-02T00:54:54.707Z,148
2017-08-02T00:56:02.192Z,148
2017-08-02T00:57:09.349Z,149
2017-08-02T00:58:16.496Z,149
2017-08-02T00:59:23.653Z,149
2017-08-02T01:00:31.436Z,149
2017-08-02T01:01:38.598Z,143
2017-08-02T01:02:45.747Z,144
2017-08-02T01:03:53.240Z,144
2017-08-02T01:05:00.721Z,145
2017-08-02T01:06:08.185Z,145
2017-08-02T01:07:15.668Z,146
2017-08-02T01:08:23.152Z,146
2017-08-02T01:09:30.640Z,146
2017-08-02T01:10:38.118Z,146
2017-08-02T01:11:45.949Z,146
2017-08-02T01:12:53.438Z,147
2017-08-02T01:14:00.583Z,146
2017-08-02T01:15:08.062Z,146
2017-08-02T01:16:15.549Z,146
2017-08-02T01:17:23.328Z,147
2017-08-02T01:18:30.812Z,147
2017-08-02T01:19:38.294Z,146
2017-08-02T01:20:45.785Z,147
2017-08-02T01:21:53.267Z,147
2017-08-02T01:23:00.767Z,147
2017-08-02T01:24:08.251Z,147
2017-08-02T01:25:15.735Z,147
2017-08-02T01:26:23.211Z,147
2017-08-02T01:27:30.694Z,147
2017-08-02T01:28:38.475Z,148
2017-08-02T01:29:45.977Z,147
2017-08-02T01:30:53.459Z,147
2017-08-02T01:32:00.940Z,146
2017-08-02T01:33:08.433Z,147
2017-08-02T01:34:16.257Z,147
2017-08-02T01:35:23.744Z,147
2017-08-02T01:36:31.223Z,147
2017-08-02T01:37:38.708Z,147
2017-08-02T01:38:46.193Z,147
2017-08-02T01:39:53.645Z,147
2017-08-02T01:41:01.125Z,147
2017-08-02T01:42:08.618Z,147
2017-08-02T01:43:16.105Z,147
2017-08-02T01:44:23.586Z,147
2017-08-02T01:45:31.164Z,147
2017-08-02T01:46:38.643Z,147
2017-08-02T01:47:46.125Z,147
2017-08-02T01:48:53.601Z,148
2017-08-02T01:50:01.081Z,147
2017-08-02T01:51:08.819Z,147
2017-08-02T01:52:15.988Z,147
2017-08-02T01:53:23.471Z,147
2017-08-02T01:54:30.953Z,147
2017-08-02T01:55:38.437Z,147
2017-08-02T01:56:46.028Z,147
2017-08-02T01:57:52.522Z,147
2017-08-02T01:59:00.008Z,147
2017-08-02T02:00:07.489Z,147
2017-08-02T02:01:14.642Z,147
2017-08-02T02:02:22.377Z,147
2017-08-02T02:03:29.868Z,147
2017-08-02T02:04:37.360Z,147
2017-08-02T02:05:44.857Z,147
2017-08-02T02:06:52.340Z,147
2017-08-02T02:08:00.073Z,147
2017-08-02T02:09:07.227Z,147
2017-08-02T02:10:14.708Z,147
2017-08-02T02:11:21.868Z,148
2017-08-02T02:12:29.350Z,148
2017-08-02T02:13:37.135Z,148
2017-08-02T02:14:44.615Z,148
2017-08-02T02:15:52.094Z,148
2017-08-02T02:16:59.243Z,148
2017-08-02T02:18:06.725Z,148
2017-08-02T02:19:14.457Z,148
2017-08-02T02:20:21.274Z,148
2017-08-02T02:21:28.752Z,148
2017-08-02T02:22:36.241Z,148
2017-08-02T02:23:43.730Z,148
2017-08-02T02:24:51.472Z,149
2017-08-02T02:25:58.952Z,149
2017-08-02T02:27:06.117Z,149
2017-08-02T02:28:13.267Z,149
2017-08-02T02:29:20.755Z,149
2017-08-02T02:30:28.483Z,149
2017-08-02T02:31:35.971Z,149
2017-08-02T02:32:43.451Z,149
2017-08-02T02:33:50.932Z,149
2017-08-02T02:34:58.420Z,149
2017-08-02T02:36:06.156Z,149
2017-08-02T02:37:13.638Z,149
2017-08-02T02:38:21.119Z,149
2017-08-02T02:39:28.602Z,150
2017-08-02T02:40:36.083Z,150
2017-08-02T02:41:43.338Z,150
2017-08-02T02:42:50.817Z,150
2017-08-02T02:43:58.302Z,150
2017-08-02T02:45:05.452Z,150
2017-08-02T02:46:12.936Z,150
2017-08-02T02:47:20.721Z,150
2017-08-02T02:48:28.205Z,150
2017-08-02T02:49:35.356Z,151
2017-08-02T02:50:42.836Z,150
2017-08-02T02:51:50.323Z,150
2017-08-02T02:52:57.772Z,151
2017-08-02T02:54:05.257Z,151
2017-08-02T02:55:12.744Z,151
2017-08-02T02:56:19.898Z,151
2017-08-02T02:57:27.380Z,151
2017-08-02T02:58:34.638Z,152
2017-08-02T02:59:42.109Z,152
2017-08-02T03:00:49.701Z,152
2017-08-02T03:01:56.854Z,154
2017-08-02T03:03:04.349Z,155
2017-08-02T03:04:12.134Z,156
2017-08-02T03:05:19.284Z,156
2017-08-02T03:06:26.769Z,157
2017-08-02T03:07:34.248Z,157
2017-08-02T03:08:41.730Z,158
2017-08-02T03:09:49.507Z,158
2017-08-02T03:10:56.657Z,158
2017-08-02T03:12:04.136Z,158
2017-08-02T03:13:11.625Z,158
2017-08-02T03:14:19.100Z,158
2017-08-02T03:15:26.881Z,159
2017-08-02T03:16:34.366Z,159
2017-08-02T03:17:41.849Z,159
2017-08-02T03:18:49.338Z,159
2017-08-02T03:19:56.835Z,158
2017-08-02T03:21:04.421Z,158
2017-08-02T03:22:11.917Z,159
2017-08-02T03:23:19.401Z,158
2017-08-02T03:24:26.880Z,158
2017-08-02T03:25:34.363Z,158
2017-08-02T03:26:42.145Z,158
2017-08-02T03:27:49.625Z,158
2017-08-02T03:28:57.102Z,158
2017-08-02T03:30:04.588Z,157
2017-08-02T03:31:12.083Z,158
2017-08-02T03:32:19.660Z,158
2017-08-02T03:33:27.145Z,158
2017-08-02T03:34:34.629Z,158
2017-08-02T03:35:42.110Z,158
2017-08-02T03:36:49.591Z,158
2017-08-02T03:37:56.710Z,158
2017-08-02T03:39:04.193Z,158
2017-08-02T03:40:11.674Z,158
2017-08-02T03:41:19.159Z,158
2017-08-02T03:42:26.641Z,158
2017-08-02T03:43:34.130Z,160
2017-08-02T03:44:41.617Z,159
2017-08-02T03:45:49.096Z,159
2017-08-02T03:46:56.580Z,158
2017-08-02T03:48:04.066Z,158
2017-08-02T03:49:11.645Z,158
2017-08-02T03:50:19.133Z,157
2017-08-02T03:51:26.614Z,157
2017-08-02T03:52:34.094Z,157
2017-08-02T03:53:41.579Z,157
2017-08-02T03:54:49.155Z,157
2017-08-02T03:55:56.633Z,157
2017-08-02T03:57:04.112Z,157
2017-08-02T03:58:11.611Z,157
2017-08-02T03:59:19.095Z,157
2017-08-02T04:00:26.592Z,157
2017-08-02T04:01:34.076Z,157
2017-08-02T04:02:41.550Z,157
2017-08-02T04:03:48.706Z,157
2017-08-02T04:04:56.203Z,157
2017-08-02T04:06:03.934Z,157
2017-08-02T04:07:11.410Z,157
2017-08-02T04:08:18.897Z,157
2017-08-02T04:09:26.382Z,157
2017-08-02T04:10:33.868Z,157
2017-08-02T04:11:41.611Z,157
2017-08-02T04:12:49.093Z,156
2017-08-02T04:13:56.571Z,156
2017-08-02T04:15:04.050Z,156
2017-08-02T04:16:11.535Z,156
2017-08-02T04:17:18.993Z,156
2017-08-02T04:18:26.466Z,156
2017-08-02T04:19:33.968Z,156
2017-08-02T04:20:41.445Z,157
2017-08-02T04:21:48.928Z,158
2017-08-02T04:22:56.075Z,158
2017-08-02T04:24:03.566Z,158
2017-08-02T04:25:11.062Z,159
2017-08-02T04:26:18.543Z,159
2017-08-02T04:27:25.693Z,159
2017-08-02T04:28:33.430Z,159
2017-08-02T04:29:40.913Z,159
2017-08-02T04:30:48.407Z,159
2017-08-02T04:31:55.889Z,158
2017-08-02T04:33:03.041Z,158
2017-08-02T04:34:10.442Z,158
2017-08-02T04:35:17.784Z,158
2017-08-02T04:36:25.300Z,158
2017-08-02T04:37:32.783Z,158
2017-08-02T04:38:40.286Z,158
2017-08-02T04:39:48.020Z,158
2017-08-02T04:40:55.510Z,171
2017-08-02T04:42:02.996Z,171
2017-08-02T04:43:10.481Z,171
2017-08-02T04:44:17.624Z,172
2017-08-02T04:45:25.199Z,173
2017-08-02T04:46:32.683Z,173
2017-08-02T04:47:40.167Z,174
2017-08-02T04:48:47.651Z,174
2017-08-02T04:49:54.801Z,174
2017-08-02T04:51:02.586Z,174
2017-08-02T04:52:10.249Z,175
2017-08-02T04:53:17.768Z,175
2017-08-02T04:54:24.921Z,175
2017-08-02T04:55:32.433Z,175
2017-08-02T04:56:40.170Z,177
2017-08-02T04:57:47.650Z,178
2017-08-02T04:58:54.806Z,180
2017-08-02T05:00:02.284Z,183
2017-08-02T05:01:09.765Z,186
2017-08-02T05:02:17.253Z,187
2017-08-02T05:03:24.737Z,189
2017-08-02T05:04:32.218Z,191
2017-08-02T05:05:39.697Z,191
2017-08-02T05:06:47.180Z,193
2017-08-02T05:07:54.922Z,192
2017-08-02T05:09:02.408Z,194
2017-08-02T05:10:09.891Z,195
2017-08-02T05:11:17.379Z,196
2017-08-02T05:12:24.880Z,196
2017-08-02T05:13:32.667Z,197
2017-08-02T05:14:40.147Z,206
2017-08-02T05:15:47.630Z,206
2017-08-02T05:16:55.111Z,204
2017-08-02T05:18:02.264Z,202
2017-08-02T05:19:09.997Z,202
2017-08-02T05:20:17.489Z,201
2017-08-02T05:21:24.635Z,201
2017-08-02T05:22:32.122Z,203
2017-08-02T05:23:39.606Z,202
2017-08-02T05:24:47.401Z,202
2017-08-02T05:25:54.904Z,202
2017-08-02T05:27:02.062Z,203
2017-08-02T05:28:09.550Z,204
2017-08-02T05:29:17.037Z,204
2017-08-02T05:30:24.874Z,204
2017-08-02T05:31:32.360Z,205
2017-08-02T05:32:39.842Z,207
2017-08-02T05:33:47.325Z,206
2017-08-02T05:34:54.804Z,208
2017-08-02T05:36:02.612Z,208
2017-08-02T05:37:10.098Z,211
2017-08-02T05:38:17.578Z,210
2017-08-02T05:39:25.063Z,209
2017-08-02T05:40:32.560Z,209
2017-08-02T05:41:40.038Z,209
2017-08-02T05:42:47.518Z,210
2017-08-02T05:43:54.675Z,210
2017-08-02T05:45:02.156Z,211
2017-08-02T05:46:09.637Z,211
2017-08-02T05:47:17.378Z,211
2017-08-02T05:48:24.527Z,212
2017-08-02T05:49:32.017Z,212
2017-08-02T05:50:39.493Z,214
2017-08-02T05:51:46.648Z,215
2017-08-02T05:52:54.394Z,215
2017-08-02T05:54:01.875Z,215
2017-08-02T05:55:09.022Z,216
2017-08-02T05:56:16.508Z,216
2017-08-02T05:57:23.995Z,217
2017-08-02T05:58:31.462Z,218
2017-08-02T05:59:38.936Z,219
2017-08-02T06:00:46.418Z,219
2017-08-02T06:01:53.896Z,218
2017-08-02T06:03:01.402Z,218
2017-08-02T06:04:08.888Z,219
2017-08-02T06:05:16.373Z,219
2017-08-02T06:06:23.854Z,220
2017-08-02T06:07:31.344Z,220
2017-08-02T06:08:39.129Z,220
2017-08-02T06:09:46.629Z,221
2017-08-02T06:10:54.107Z,221
2017-08-02T06:12:01.607Z,221
2017-08-02T06:13:09.094Z,221
2017-08-02T06:14:16.677Z,222
2017-08-02T06:15:24.162Z,222
2017-08-02T06:16:31.649Z,223
2017-08-02T06:17:39.134Z,224
2017-08-02T06:18:46.286Z,226
2017-08-02T06:19:54.021Z,226
2017-08-02T06:21:01.505Z,226
2017-08-02T06:22:08.990Z,227
2017-08-02T06:23:16.156Z,226
2017-08-02T06:24:23.637Z,228
2017-08-02T06:25:31.370Z,226
2017-08-02T06:26:38.525Z,227
2017-08-02T06:27:46.004Z,228
2017-08-02T06:28:53.493Z,227
2017-08-02T06:30:00.985Z,228
2017-08-02T06:31:08.467Z,228
2017-08-02T06:32:15.948Z,230
2017-08-02T06:33:23.446Z,229
2017-08-02T06:34:30.605Z,230
2017-08-02T06:35:38.098Z,230
2017-08-02T06:36:45.827Z,229
2017-08-02T06:37:53.317Z,230
2017-08-02T06:39:00.474Z,230
2017-08-02T06:40:07.962Z,231
2017-08-02T06:41:15.112Z,231
2017-08-02T06:42:22.893Z,231
2017-08-02T06:43:30.376Z,232
2017-08-02T06:44:37.212Z,232
2017-08-02T06:45:44.697Z,231
2017-08-02T06:46:52.183Z,231
2017-08-02T06:47:59.666Z,232
2017-08-02T06:49:07.151Z,232
2017-08-02T06:50:14.676Z,234
2017-08-02T06:51:21.812Z,233
2017-08-02T06:52:29.295Z,233
2017-08-02T06:53:37.030Z,234
2017-08-02T06:54:44.533Z,234
2017-08-02T06:55:52.019Z,236
2017-08-02T06:56:59.507Z,237
2017-08-02T06:58:07.001Z,238
2017-08-02T06:59:14.782Z,238
2017-08-02T07:00:21.938Z,238
2017-08-02T07:01:29.098Z,237
2017-08-02T07:02:36.246Z,238
2017-08-02T07:03:43.735Z,239
2017-08-02T07:04:51.318Z,240
2017-08-02T07:05:58.800Z,239
2017-08-02T07:07:06.282Z,242
2017-08-02T07:08:13.431Z,240
2017-08-02T07:09:20.929Z,241
2017-08-02T07:10:42.999Z,242
2017-08-02T07:11:50.485Z,242
2017-08-02T07:12:57.967Z,242
2017-08-02T07:14:05.443Z,243
2017-08-02T07:15:12.849Z,243
2017-08-02T07:16:20.326Z,242
2017-08-02T07:17:27.495Z,243
2017-08-02T07:18:34.988Z,243
2017-08-02T07:19:42.468Z,243
2017-08-02T07:20:50.053Z,242
2017-08-02T07:21:57.764Z,243
2017-08-02T07:23:05.247Z,243
2017-08-02T07:24:13.685Z,246
2017-08-02T07:25:21.170Z,246
2017-08-02T07:26:28.751Z,244
2017-08-02T07:27:36.233Z,245
2017-08-02T07:28:43.390Z,245
2017-08-02T07:29:50.870Z,244
2017-08-02T07:30:58.351Z,244
2017-08-02T07:32:05.932Z,244
2017-08-02T07:33:13.427Z,245
2017-08-02T07:34:20.591Z,245
2017-08-02T07:35:28.082Z,245
2017-08-02T07:36:35.567Z,245
2017-08-02T07:37:43.045Z,246
2017-08-02T07:38:50.529Z,246
2017-08-02T07:39:58.017Z,246
2017-08-02T07:41:05.527Z,246
2017-08-02T07:42:13.038Z,245
2017-08-02T07:43:20.524Z,246
2017-08-02T07:44:28.015Z,246
2017-08-02T07:45:35.504Z,246
2017-08-02T07:46:42.997Z,247
2017-08-02T07:47:50.834Z,246
2017-08-02T07:48:58.320Z,247
2017-08-02T07:50:05.806Z,247
2017-08-02T07:51:13.291Z,248
2017-08-02T07:52:20.776Z,248
2017-08-02T07:53:29.141Z,248
2017-08-02T07:54:36.624Z,248
2017-08-02T07:55:44.116Z,248
2017-08-02T07:56:51.603Z,248
2017-08-02T07:57:59.094Z,248
2017-08-02T07:59:06.879Z,248
2017-08-02T08:00:14.370Z,248
2017-08-02T08:01:21.854Z,248
2017-08-02T08:02:29.339Z,249
2017-08-02T08:03:36.825Z,249
2017-08-02T08:04:44.662Z,247
2017-08-02T08:05:52.335Z,249
2017-08-02T08:06:59.486Z,248
2017-08-02T08:08:06.652Z,248
2017-08-02T08:09:14.135Z,248
2017-08-02T08:10:21.625Z,247
2017-08-02T08:11:29.116Z,248
2017-08-02T08:12:36.910Z,247
2017-08-02T08:13:44.399Z,248
2017-08-02T08:14:51.557Z,247
2017-08-02T08:15:59.041Z,248
2017-08-02T08:17:06.535Z,248
2017-08-02T08:18:14.376Z,249
2017-08-02T08:19:21.858Z,249
2017-08-02T08:20:29.344Z,249
2017-08-02T08:21:36.830Z,249
2017-08-02T08:22:43.984Z,248
2017-08-02T08:23:51.058Z,249
2017-08-02T08:24:58.550Z,249
2017-08-02T08:26:06.034Z,250
2017-08-02T08:27:13.520Z,250
2017-08-02T08:28:20.689Z,250
2017-08-02T08:29:28.177Z,250
2017-08-02T08:30:35.657Z,250
2017-08-02T08:31:43.140Z,251
2017-08-02T08:32:50.628Z,251
2017-08-02T08:33:58.092Z,250
2017-08-02T08:35:05.253Z,249
2017-08-02T08:36:12.754Z,250
2017-08-02T08:37:20.247Z,250
2017-08-02T08:38:27.730Z,250
2017-08-02T08:39:35.138Z,250
2017-08-02T08:40:42.646Z,250
2017-08-02T08:41:50.140Z,251
2017-08-02T08:42:57.630Z,251
2017-08-02T08:44:05.115Z,252
2017-08-02T08:45:12.906Z,252
2017-08-02T08:46:20.392Z,253
2017-08-02T08:47:27.879Z,253
2017-08-02T08:48:35.365Z,254
2017-08-02T08:49:42.854Z,253
2017-08-02T08:50:50.445Z,253
2017-08-02T08:51:57.604Z,253
2017-08-02T08:53:05.094Z,253
2017-08-02T08:54:12.585Z,254
2017-08-02T08:55:20.075Z,253
2017-08-02T08:56:27.567Z,253
2017-08-02T08:57:34.758Z,253
2017-08-02T08:58:42.236Z,254
2017-08-02T08:59:49.722Z,254
2017-08-02T09:00:57.220Z,253
2017-08-02T09:02:05.049Z,254
2017-08-02T09:03:12.540Z,255
2017-08-02T09:04:20.037Z,255
2017-08-02T09:05:27.204Z,255
2017-08-02T09:06:34.712Z,256
2017-08-02T09:07:42.560Z,255
2017-08-02T09:08:49.717Z,255
2017-08-02T09:09:57.422Z,254
2017-08-02T09:11:04.934Z,255
2017-08-02T09:12:12.421Z,254
2017-08-02T09:13:19.944Z,254
2017-08-02T09:14:27.434Z,254
2017-08-02T09:15:34.595Z,254
2017-08-02T09:16:41.749Z,254
2017-08-02T09:17:49.236Z,255
2017-08-02T09:18:57.017Z,255
2017-08-02T09:20:04.177Z,255
2017-08-02T09:21:11.340Z,254
2017-08-02T09:22:18.830Z,254
2017-08-02T09:23:26.321Z,254
2017-08-02T09:24:34.123Z,254
2017-08-02T09:25:41.614Z,254
2017-08-02T09:26:49.101Z,254
2017-08-02T09:27:56.595Z,255
2017-08-02T09:29:04.087Z,254
2017-08-02T09:30:11.929Z,253
2017-08-02T09:31:19.085Z,254
2017-08-02T09:32:26.249Z,254
2017-08-02T09:33:33.738Z,254
2017-08-02T09:34:41.223Z,254
2017-08-02T09:35:49.087Z,254
2017-08-02T09:36:56.570Z,254
2017-08-02T09:38:04.059Z,255
2017-08-02T09:39:12.359Z,254
2017-08-02T09:40:19.847Z,254
2017-08-02T09:41:27.638Z,255
2017-08-02T09:42:35.128Z,256
2017-08-02T09:43:42.614Z,255
2017-08-02T09:44:50.109Z,256
2017-08-02T09:45:57.601Z,255
2017-08-02T09:47:05.452Z,255
2017-08-02T09:48:12.948Z,256
2017-08-02T09:49:20.439Z,256
2017-08-02T09:50:27.928Z,255
2017-08-02T09:51:35.418Z,255
2017-08-02T09:52:43.264Z,254
2017-08-02T09:53:50.662Z,254
2017-08-02T09:54:58.141Z,255
2017-08-02T09:56:05.649Z,254
2017-08-02T09:57:13.136Z,255
2017-08-02T09:58:20.308Z,256
2017-08-02T09:59:27.797Z,254
2017-08-02T10:00:35.599Z,254
2017-08-02T10:01:42.757Z,255
2017-08-02T10:02:50.243Z,255
2017-08-02T10:03:57.736Z,255
2017-08-02T10:05:05.223Z,255
2017-08-02T10:06:12.730Z,255
2017-08-02T10:07:20.217Z,255
2017-08-02T10:08:27.372Z,256
2017-08-02T10:09:34.862Z,255
2017-08-02T10:10:42.360Z,255
2017-08-02T10:11:50.140Z,255
2017-08-02T10:12:57.302Z,254
2017-08-02T10:14:04.811Z,254
2017-08-02T10:15:18.794Z,255
2017-08-02T10:16:26.284Z,255
2017-08-02T10:17:34.082Z,256
2017-08-02T10:18:41.567Z,254
2017-08-02T10:19:49.060Z,255
2017-08-02T10:20:56.555Z,255
2017-08-02T10:22:03.707Z,255
2017-08-02T10:23:11.548Z,254
2017-08-02T10:24:19.047Z,255
2017-08-02T10:25:26.534Z,255
2017-08-02T10:26:34.021Z,254
2017-08-02T10:27:41.520Z,254
2017-08-02T10:28:49.359Z,253
2017-08-02T10:29:56.850Z,253
2017-08-02T10:31:04.339Z,254
2017-08-02T10:32:11.492Z,254
2017-08-02T10:33:19.008Z,253
2017-08-02T10:34:26.496Z,252
2017-08-02T10:35:34.284Z,251
2017-08-02T10:36:41.785Z,250
2017-08-02T10:37:49.267Z,249
2017-08-02T10:38:56.750Z,252
2017-08-02T10:40:04.235Z,252
2017-08-02T10:41:12.025Z,252
2017-08-02T10:42:19.519Z,251
2017-08-02T10:43:26.362Z,252
2017-08-02T10:44:33.846Z,252
2017-08-02T10:45:41.340Z,253
2017-08-02T10:46:49.150Z,253
2017-08-02T10:47:56.639Z,253
2017-08-02T10:49:03.471Z,253
2017-08-02T10:50:10.959Z,253
2017-08-02T10:51:18.115Z,253
2017-08-02T10:52:25.606Z,253
2017-08-02T10:53:32.788Z,253
2017-08-02T10:54:40.283Z,253
2017-08-02T10:55:47.445Z,253
2017-08-02T10:56:54.931Z,253
2017-08-02T10:58:02.418Z,253
2017-08-02T10:59:09.915Z,253
2017-08-02T11:00:17.407Z,253
2017-08-02T11:01:24.892Z,253
2017-08-02T11:02:32.682Z,252
2017-08-02T11:03:40.187Z,252
2017-08-02T11:04:47.690Z,251
2017-08-02T11:05:55.185Z,250
2017-08-02T11:07:02.668Z,250
2017-08-02T11:08:10.134Z,248
2017-08-02T11:09:17.622Z,249
2017-08-02T11:10:25.130Z,250
2017-08-02T11:11:32.621Z,249
2017-08-02T11:12:40.120Z,248
2017-08-02T11:13:47.603Z,247
2017-08-02T11:14:55.074Z,249
2017-08-02T11:16:02.232Z,249
2017-08-02T11:17:09.725Z,249
2017-08-02T11:18:17.209Z,248
2017-08-02T11:19:24.714Z,248
2017-08-02T11:20:32.499Z,247
2017-08-02T11:21:39.992Z,248
2017-08-02T11:22:47.481Z,248
2017-08-02T11:23:54.643Z,247
2017-08-02T11:25:02.139Z,248
2017-08-02T11:26:09.930Z,249
2017-08-02T11:27:17.430Z,250
2017-08-02T11:28:24.937Z,248
2017-08-02T11:29:32.426Z,247
2017-08-02T11:30:39.930Z,245
2017-08-02T11:31:47.418Z,244
2017-08-02T11:32:54.925Z,243
2017-08-02T11:34:02.415Z,243
2017-08-02T11:35:09.580Z,243
2017-08-02T11:36:17.069Z,243
2017-08-02T11:37:24.858Z,243
2017-08-02T11:38:32.346Z,244
2017-08-02T11:39:39.838Z,243
2017-08-02T11:40:47.331Z,243
2017-08-02T11:41:55.915Z,242
2017-08-02T11:43:03.709Z,243
2017-08-02T11:44:11.216Z,243
2017-08-02T11:45:18.720Z,244
2017-08-02T11:46:26.201Z,244
2017-08-02T11:47:33.370Z,244
2017-08-02T11:48:40.872Z,243
2017-08-02T11:49:48.524Z,241
2017-08-02T11:50:56.012Z,240
2017-08-02T11:52:03.508Z,240
2017-08-02T11:53:10.999Z,239
2017-08-02T11:54:19.073Z,239
2017-08-02T11:55:26.568Z,239
2017-08-02T11:56:34.075Z,238
2017-08-02T11:57:41.566Z,237
2017-08-02T11:58:49.061Z,235
2017-08-02T11:59:56.904Z,234
2017-08-02T12:01:04.398Z,234
2017-08-02T12:02:11.562Z,235
2017-08-02T12:03:19.056Z,234
2017-08-02T12:04:26.549Z,234
2017-08-02T12:05:34.351Z,234
2017-08-02T12:06:41.904Z,234
2017-08-02T12:07:49.406Z,236
2017-08-02T12:08:56.921Z,235
2017-08-02T12:10:04.085Z,234
2017-08-02T12:11:11.594Z,232
2017-08-02T12:12:19.086Z,233
2017-08-02T12:13:26.579Z,233
2017-08-02T12:14:34.073Z,233
2017-08-02T12:15:41.569Z,233
2017-08-02T12:16:49.360Z,232
2017-08-02T12:17:56.848Z,232
2017-08-02T12:19:04.345Z,231
2017-08-02T12:20:11.836Z,231
2017-08-02T12:21:19.000Z,230
2017-08-02T12:22:26.842Z,230
2017-08-02T12:23:34.335Z,231
2017-08-02T12:24:41.498Z,231
2017-08-02T12:25:49.006Z,231
2017-08-02T12:26:56.166Z,231
2017-08-02T12:28:03.703Z,231
2017-08-02T12:29:10.867Z,231
2017-08-02T12:30:18.363Z,229
2017-08-02T12:31:25.849Z,230
2017-08-02T12:32:33.344Z,231
2017-08-02T12:33:41.185Z,230
2017-08-02T12:34:48.672Z,230
2017-08-02T12:35:56.164Z,231
2017-08-02T12:37:03.656Z,231
2017-08-02T12:38:11.146Z,230
2017-08-02T12:39:18.940Z,230
2017-08-02T12:40:26.433Z,230
2017-08-02T12:41:33.594Z,229
2017-08-02T12:42:41.087Z,230
2017-08-02T12:43:48.583Z,230
2017-08-02T12:44:56.399Z,229
2017-08-02T12:46:03.888Z,230
2017-08-02T12:47:11.059Z,230
2017-08-02T12:48:17.911Z,230
2017-08-02T12:49:25.417Z,229
2017-08-02T12:50:32.584Z,231
2017-08-02T12:51:40.081Z,229
2017-08-02T12:52:47.572Z,230
2017-08-02T12:53:55.066Z,230
2017-08-02T12:55:02.567Z,231
2017-08-02T12:56:10.363Z,230
2017-08-02T12:57:17.851Z,231
2017-08-02T12:58:25.338Z,231
2017-08-02T12:59:32.832Z,231
2017-08-02T13:00:40.324Z,231
2017-08-02T13:01:48.326Z,232
2017-08-02T13:02:55.820Z,231
2017-08-02T13:04:03.314Z,230
2017-08-02T13:05:10.808Z,230
2017-08-02T13:06:18.303Z,230
2017-08-02T13:07:26.146Z,229
2017-08-02T13:08:33.639Z,230
2017-08-02T13:09:41.130Z,229
2017-08-02T13:10:48.629Z,229
2017-08-02T13:11:55.453Z,229
2017-08-02T13:13:02.944Z,229
2017-08-02T13:14:10.437Z,228
2017-08-02T13:15:18.235Z,230
2017-08-02T13:16:25.408Z,230
2017-08-02T13:17:32.911Z,230
2017-08-02T13:18:40.075Z,231
2017-08-02T13:19:46.900Z,234
2017-08-02T13:20:54.704Z,233
2017-08-02T13:22:01.855Z,231
2017-08-02T13:23:09.358Z,230
2017-08-02T13:24:16.853Z,230
2017-08-02T13:25:24.351Z,230
2017-08-02T13:26:32.147Z,231
2017-08-02T13:27:39.642Z,231
2017-08-02T13:28:47.134Z,231
2017-08-02T13:29:54.634Z,231
2017-08-02T13:31:02.121Z,231
2017-08-02T13:32:09.638Z,231
2017-08-02T13:33:17.132Z,232
2017-08-02T13:34:24.630Z,232
2017-08-02T13:35:32.138Z,231
2017-08-02T13:36:39.626Z,230
2017-08-02T13:37:47.468Z,229
2017-08-02T13:38:54.963Z,226
2017-08-02T13:40:02.082Z,226
2017-08-02T13:41:09.575Z,228
2017-08-02T13:42:17.063Z,228
2017-08-02T13:43:24.605Z,229
2017-08-02T13:44:31.789Z,229
2017-08-02T13:45:39.282Z,229
2017-08-02T13:46:46.782Z,228
2017-08-02T13:47:54.275Z,228
2017-08-02T13:49:01.734Z,226
2017-08-02T13:50:09.226Z,226
2017-08-02T13:51:16.720Z,226
2017-08-02T13:52:24.208Z,227
2017-08-02T13:53:31.698Z,227
2017-08-02T13:54:38.865Z,227
2017-08-02T13:55:46.352Z,226
2017-08-02T13:56:53.843Z,227
2017-08-02T13:58:01.091Z,227
2017-08-02T13:59:08.582Z,226
2017-08-02T14:00:16.374Z,226
2017-08-02T14:01:23.894Z,226
2017-08-02T14:02:31.379Z,226
2017-08-02T14:03:38.883Z,225
2017-08-02T14:04:46.371Z,225
2017-08-02T14:05:55.680Z,226
2017-08-02T14:07:03.173Z,226
2017-08-02T14:08:10.674Z,227
2017-08-02T14:09:18.169Z,227
2017-08-02T14:10:25.660Z,227
2017-08-02T14:11:33.150Z,226
2017-08-02T14:12:40.644Z,226
2017-08-02T14:13:47.813Z,225
2017-08-02T14:14:55.301Z,225
2017-08-02T14:16:02.653Z,225
2017-08-02T14:17:10.494Z,226
2017-08-02T14:18:18.027Z,227
2017-08-02T14:19:25.525Z,227
2017-08-02T14:20:33.017Z,227
2017-08-02T14:21:40.506Z,227
2017-08-02T14:22:48.352Z,227
2017-08-02T14:23:55.503Z,225
2017-08-02T14:25:02.666Z,225
2017-08-02T14:26:10.157Z,225
2017-08-02T14:27:17.682Z,226
2017-08-02T14:28:25.177Z,227
2017-08-02T14:29:32.339Z,227
2017-08-02T14:30:39.830Z,227
2017-08-02T14:31:47.925Z,227
2017-08-02T14:32:55.092Z,226
2017-08-02T14:34:02.260Z,227
2017-08-02T14:35:09.420Z,228
2017-08-02T14:36:16.799Z,227
2017-08-02T14:37:24.594Z,227
2017-08-02T14:38:32.093Z,227
2017-08-02T14:39:39.583Z,228
2017-08-02T14:40:46.745Z,228
2017-08-02T14:41:53.904Z,228
2017-08-02T14:43:01.698Z,228
2017-08-02T14:44:09.205Z,228
2017-08-02T14:45:16.371Z,228
2017-08-02T14:46:23.862Z,228
2017-08-02T14:47:31.376Z,228
2017-08-02T14:48:38.869Z,228
2017-08-02T14:49:46.383Z,228
2017-08-02T14:50:53.878Z,228
2017-08-02T14:52:01.369Z,228
2017-08-02T14:53:08.860Z,227
2017-08-02T14:54:16.769Z,228
2017-08-02T14:55:24.264Z,228
2017-08-02T14:56:31.754Z,229
2017-08-02T14:57:39.295Z,229
2017-08-02T14:58:46.784Z,229
2017-08-02T14:59:54.582Z,229
2017-08-02T15:01:02.102Z,225
2017-08-02T15:02:09.595Z,225
2017-08-02T15:03:17.085Z,225
2017-08-02T15:04:24.579Z,225
2017-08-02T15:05:32.424Z,225
2017-08-02T15:06:39.919Z,224
2017-08-02T15:07:47.409Z,225
2017-08-02T15:08:54.901Z,224
2017-08-02T15:10:02.397Z,225
2017-08-02T15:11:09.907Z,224
2017-08-02T15:12:17.397Z,225
2017-08-02T15:13:24.895Z,224
2017-08-02T15:14:32.385Z,224
2017-08-02T15:15:39.885Z,225
2017-08-02T15:16:47.944Z,224
2017-08-02T15:17:55.446Z,224
2017-08-02T15:19:02.974Z,224
2017-08-02T15:20:10.131Z,223
2017-08-02T15:21:17.629Z,224
2017-08-02T15:22:25.429Z,224
2017-08-02T15:23:32.915Z,223
2017-08-02T15:24:40.403Z,224
2017-08-02T15:25:47.896Z,223
2017-08-02T15:26:55.387Z,224
2017-08-02T15:28:03.273Z,223
2017-08-02T15:29:10.766Z,224
2017-08-02T15:30:17.956Z,224